Gonzalez Chaves, Argentina
Current Conditions -  °F | °C
As of 8:00 AM on Wednesday 26 Nov 2014 (Local Time) from SAZM Reporting Station
Clear Clear  
Wind Chill: 17°   Ceiling: Unl
Heat Index: 17°   Visibility: 6mi
Dew Point: 10°   Wind: 15mph
Humidity: 63%   Direction: 320°NW
Pressure: 29.91"   Gusts: NA
Location:  38.04°S, 60.11°W
Report Text: SAZM 261100Z 32013KT CAVOK 17/10 Q1013
Loading
Personal Weather Stations






























Interactive Weather Map New forecast layout! Learn more

10-Day Weather Forecast

Advertisements
Track Severe Weather on mobile